Time;durP1;ratioP1;P1;durP2;ratioP2;P2;SDS_P1;SDS_P2;PMS_P1;PMS_P2;Temp;Humidity;BMP_temperature;BMP_pressure;BME280_temperature;BME280_humidity;BME280_pressure;Samples;Min_cycle;Max_cycle;Signal;HPM_P1;HPM_P2
2023/06/08 00:00:42;;;;;;;3.85;2.72;;;20.00;58.50;;;;;;5071767;28;20136;-33
2023/06/08 00:03:12;;;;;;;4.28;3.03;;;21.20;74.60;;;;;;5070568;28;20045;-31
2023/06/08 00:05:44;;;;;;;4.15;2.83;;;20.40;70.80;;;;;;5071096;28;20055;-33
2023/06/08 00:08:12;;;;;;;3.67;2.60;;;20.20;73.10;;;;;;5071094;28;20501;-31
2023/06/08 00:10:42;;;;;;;3.13;2.30;;;20.90;60.20;;;;;;5071347;28;20062;-31
2023/06/08 00:13:08;;;;;;;5.25;2.75;;;20.50;65.20;;;;;;5070834;28;20396;-33
2023/06/08 00:15:35;;;;;;;4.97;2.70;;;20.80;67.50;;;;;;5071546;28;20131;-31
2023/06/08 00:18:02;;;;;;;3.97;2.45;;;20.10;73.90;;;;;;5071281;28;20417;-31
2023/06/08 00:20:29;;;;;;;4.32;2.70;;;20.70;73.40;;;;;;5070728;28;20131;-32
2023/06/08 00:22:56;;;;;;;4.80;2.63;;;20.10;73.10;;;;;;5071056;28;20056;-31
2023/06/08 00:25:24;;;;;;;5.00;2.58;;;20.50;62.60;;;;;;5071094;28;20044;-32
2023/06/08 00:27:51;;;;;;;4.90;3.03;;;20.80;60.60;;;;;;5070706;28;20553;-32
2023/06/08 00:30:18;;;;;;;4.63;2.65;;;20.80;74.30;;;;;;5071318;28;20131;-31
2023/06/08 00:32:45;;;;;;;3.92;2.53;;;;;;;;;;5071056;28;20079;-30
2023/06/08 00:35:11;;;;;;;3.25;2.35;;;20.60;73.80;;;;;;5061610;28;20583;-31
2023/06/08 00:37:38;;;;;;;4.00;2.80;;;20.40;74.80;;;;;;5060647;28;20132;-31
2023/06/08 00:40:06;;;;;;;3.65;2.63;;;20.40;55.90;;;;;;5051070;28;20095;-35
2023/06/08 00:42:34;;;;;;;3.97;2.90;;;20.40;55.90;;;;;;5050818;28;20512;-36
2023/06/08 00:45:01;;;;;;;4.18;2.78;;;20.30;73.20;;;;;;5051324;28;20049;-31
2023/06/08 00:47:27;;;;;;;3.50;2.63;;;20.80;65.00;;;;;;5050659;28;20422;-31
2023/06/08 00:49:56;;;;;;;4.43;2.40;;;;;;;;;;5063234;28;20139;-31
2023/06/08 00:52:23;;;;;;;4.28;2.60;;;20.10;73.60;;;;;;5050756;28;20063;-31
2023/06/08 00:54:50;;;;;;;4.10;2.58;;;;;;;;;;5053642;28;20056;-34
2023/06/08 00:57:18;;;;;;;4.18;2.72;;;20.60;68.10;;;;;;5054283;28;20460;-31
2023/06/08 00:59:49;;;;;;;4.10;2.90;;;20.10;70.00;;;;;;5054490;28;20048;-32
2023/06/08 01:02:16;;;;;;;4.05;2.33;;;20.10;73.00;;;;;;5054298;28;20627;-31
2023/06/08 01:04:43;;;;;;;3.97;2.58;;;19.90;73.40;;;;;;5066704;28;20063;-31
2023/06/08 01:07:14;;;;;;;3.38;2.65;;;20.30;55.90;;;;;;5074235;28;20123;-36
2023/06/08 01:09:44;;;;;;;3.92;2.70;;;20.10;63.60;;;;;;5074466;28;20051;-32
2023/06/08 01:12:15;;;;;;;4.43;2.50;;;20.30;55.80;;;;;;5074288;28;20055;-31
2023/06/08 01:14:50;;;;;;;3.78;2.97;;;21.30;73.80;;;;;;5074469;28;20048;-31
2023/06/08 01:17:18;;;;;;;5.25;2.53;;;19.90;60.00;;;;;;5073844;28;20490;-32
2023/06/08 01:20:07;;;;;;;3.22;2.28;;;20.40;73.60;;;;;;5072643;28;20049;-31
2023/06/08 01:22:44;;;;;;;3.65;2.50;;;20.50;73.50;;;;;;5073995;28;20056;-31
2023/06/08 01:25:12;;;;;;;4.45;2.60;;;19.90;73.20;;;;;;5072465;28;20048;-31
2023/06/08 01:27:39;;;;;;;3.30;2.50;;;20.50;73.40;;;;;;5073968;28;20132;-31
2023/06/08 01:30:08;;;;;;;5.13;2.50;;;20.00;73.30;;;;;;5073829;28;20056;-31
2023/06/08 01:32:35;;;;;;;3.17;2.35;;;20.30;55.90;;;;;;5073903;28;20131;-36
2023/06/08 01:35:02;;;;;;;3.80;2.60;;;20.20;74.10;;;;;;5067104;28;20124;-31
2023/06/08 01:37:32;;;;;;;4.35;2.72;;;20.40;57.30;;;;;;5055882;28;20049;-31
2023/06/08 01:40:00;;;;;;;3.53;2.67;;;20.30;68.90;;;;;;5053575;28;20076;-32
2023/06/08 01:42:28;;;;;;;4.30;2.83;;;21.00;64.90;;;;;;5053516;28;20536;-31
2023/06/08 01:44:57;;;;;;;4.10;2.70;;;20.20;62.80;;;;;;5053553;28;20045;-32
2023/06/08 01:47:25;;;;;;;3.28;2.63;;;20.90;73.70;;;;;;5053732;28;20045;-31
2023/06/08 01:49:52;;;;;;;5.13;2.47;;;19.90;69.50;;;;;;5053480;28;20055;-31
2023/06/08 01:52:20;;;;;;;3.85;2.50;;;20.30;74.10;;;;;;5062786;28;20128;-31
2023/06/08 01:54:47;;;;;;;4.45;2.60;;;;;;;;;;5053311;28;20052;-34
2023/06/08 01:57:14;;;;;;;3.85;2.75;;;;;;;;;;5053465;28;20063;-31
2023/06/08 01:59:42;;;;;;;3.78;2.40;;;19.00;72.80;;;;;;5053539;28;20574;-31
2023/06/08 02:02:09;;;;;;;5.93;3.03;;;20.10;73.70;;;;;;5069035;28;20131;-31
2023/06/08 02:04:36;;;;;;;4.03;2.30;;;;;;;;;;5073033;28;20458;-35
2023/06/08 02:07:03;;;;;;;4.80;2.83;;;;;;;;;;5072298;28;20168;-36
2023/06/08 02:09:30;;;;;;;4.05;2.50;;;;;;;;;;5059060;28;20059;-36
2023/06/08 02:12:05;;;;;;;4.10;2.50;;;19.80;73.40;;;;;;5052812;28;20729;-31
2023/06/08 02:14:32;;;;;;;3.30;2.67;;;;;;;;;;5053067;28;20119;-31
2023/06/08 02:17:00;;;;;;;4.82;2.50;;;20.40;63.10;;;;;;5053124;28;20055;-31
2023/06/08 02:19:27;;;;;;;3.78;2.60;;;20.20;74.10;;;;;;5053093;28;20418;-31
2023/06/08 02:21:55;;;;;;;3.83;2.67;;;20.30;74.10;;;;;;5052698;28;20457;-30
2023/06/08 02:24:21;;;;;;;3.15;2.13;;;19.20;72.70;;;;;;5067854;28;20052;-31
2023/06/08 02:26:51;;;;;;;3.92;2.33;;;20.20;55.90;;;;;;5072723;28;20055;-33
2023/06/08 02:29:19;;;;;;;3.63;2.60;;;;;;;;;;5072984;28;20131;-36
2023/06/08 02:31:46;;;;;;;4.70;3.08;;;;;;;;;;5072639;28;20497;-32
2023/06/08 02:34:15;;;;;;;4.70;2.70;;;20.20;55.80;;;;;;5072512;28;20655;-33
2023/06/08 02:36:42;;;;;;;4.93;2.97;;;20.50;73.90;;;;;;5071997;28;20078;-31
2023/06/08 02:39:09;;;;;;;3.88;2.53;;;20.10;59.20;;;;;;5071827;28;20160;-33
2023/06/08 02:41:36;;;;;;;3.60;2.63;;;20.80;73.70;;;;;;5072711;28;20045;-31
2023/06/08 02:44:02;;;;;;;3.97;2.45;;;19.90;73.20;;;;;;5072191;28;20075;-31
2023/06/08 02:46:31;;;;;;;3.72;2.72;;;19.10;62.50;;;;;;5072445;28;20127;-32
2023/06/08 02:48:58;;;;;;;3.30;2.40;;;;;;;;;;5072209;28;20053;-34
2023/06/08 02:51:26;;;;;;;2.92;2.50;;;19.90;74.10;;;;;;5072484;28;20056;-32
2023/06/08 02:53:52;;;;;;;2.90;2.45;;;20.00;74.10;;;;;;5071563;28;20127;-31
2023/06/08 02:56:21;;;;;;;3.72;2.80;;;;;;;;;;5072553;28;20048;-36
2023/06/08 02:58:48;;;;;;;3.95;2.60;;;20.20;61.10;;;;;;5071336;28;20044;-32
2023/06/08 03:01:15;;;;;;;4.18;2.72;;;19.40;73.20;;;;;;5072214;28;20058;-31
2023/06/08 03:03:43;;;;;;;4.35;2.70;;;19.30;63.20;;;;;;5071794;28;20044;-33
2023/06/08 03:06:12;;;;;;;3.85;2.75;;;;;;;;;;5071618;28;20149;-35
2023/06/08 03:08:40;;;;;;;4.68;2.65;;;20.10;55.80;;;;;;5071968;28;20053;-32
2023/06/08 03:11:06;;;;;;;4.53;2.80;;;20.50;73.40;;;;;;5071524;28;20049;-31
2023/06/08 03:13:34;;;;;;;4.75;3.08;;;21.00;74.10;;;;;;5071895;28;20136;-31
2023/06/08 03:16:01;;;;;;;3.53;2.72;;;;;;;;;;5071562;28;20090;-32
2023/06/08 03:18:28;;;;;;;4.47;2.80;;;;;;;;;;5069297;28;20063;-31
2023/06/08 03:20:55;;;;;;;5.28;2.60;;;19.70;73.80;;;;;;5062409;28;20135;-31
2023/06/08 03:23:21;;;;;;;4.03;2.90;;;20.00;73.30;;;;;;5061281;28;20125;-32
2023/06/08 03:25:51;;;;;;;3.95;2.75;;;19.60;55.50;;;;;;5057275;28;20048;-33
2023/06/08 03:28:18;;;;;;;6.05;2.90;;;19.60;73.00;;;;;;5051589;28;20052;-31
2023/06/08 03:30:45;;;;;;;4.07;2.95;;;20.90;70.10;;;;;;5051771;28;20128;-31
2023/06/08 03:33:11;;;;;;;5.20;2.92;;;21.10;73.90;;;;;;5059280;28;20477;-31
2023/06/08 03:35:39;;;;;;;4.38;2.90;;;;;;;;;;5071577;28;20066;-35
2023/06/08 03:38:05;;;;;;;4.60;2.85;;;20.20;73.70;;;;;;5071028;28;20160;-31
2023/06/08 03:40:32;;;;;;;5.75;2.95;;;;;;;;;;5070703;28;20127;-31
2023/06/08 03:43:00;;;;;;;3.83;2.92;;;20.60;74.00;;;;;;5070934;28;20054;-30
2023/06/08 03:45:27;;;;;;;3.33;2.60;;;19.70;73.50;;;;;;5071544;28;20071;-31
2023/06/08 03:47:55;;;;;;;3.63;2.88;;;20.20;73.70;;;;;;5071342;28;20044;-31
2023/06/08 03:50:21;;;;;;;4.22;2.80;;;19.90;67.00;;;;;;5063261;28;20048;-34
2023/06/08 03:52:48;;;;;;;4.65;2.97;;;19.90;73.20;;;;;;5071333;28;20056;-31
2023/06/08 03:55:16;;;;;;;4.82;3.05;;;;;;;;;;5071500;28;20049;-31
2023/06/08 03:57:44;;;;;;;5.55;3.10;;;;;;;;;;5064890;28;20084;-35
2023/06/08 04:00:13;;;;;;;4.05;2.97;;;20.40;73.50;;;;;;5051510;28;20132;-31
2023/06/08 04:02:40;;;;;;;4.28;2.70;;;20.80;73.80;;;;;;5051333;28;20052;-31
2023/06/08 04:05:07;;;;;;;4.45;3.15;;;19.70;68.60;;;;;;5051502;28;20045;-31
2023/06/08 04:07:35;;;;;;;4.55;3.20;;;19.90;73.10;;;;;;5052134;28;20465;-31
2023/06/08 04:10:02;;;;;;;4.50;3.05;;;;;;;;;;5051445;28;20156;-34
2023/06/08 04:12:28;;;;;;;4.20;2.97;;;18.90;72.70;;;;;;5050985;28;20128;-31
2023/06/08 04:14:55;;;;;;;5.70;3.40;;;20.00;74.20;;;;;;5051607;28;20045;-31
2023/06/08 04:17:27;;;;;;;3.78;2.70;;;20.00;67.10;;;;;;5051333;28;20053;-31
2023/06/08 04:19:53;;;;;;;5.63;3.13;;;20.50;73.60;;;;;;5051192;28;20053;-31
2023/06/08 04:22:20;;;;;;;3.88;2.75;;;20.30;61.10;;;;;;5069164;28;20408;-32
2023/06/08 04:24:47;;;;;;;4.68;2.90;;;19.80;74.00;;;;;;5060475;28;20047;-31
2023/06/08 04:27:14;;;;;;;5.63;3.10;;;20.00;73.80;;;;;;5059606;28;20394;-31
2023/06/08 04:29:41;;;;;;;4.13;3.00;;;;;;;;;;5064274;28;20124;-33
2023/06/08 04:32:08;;;;;;;5.13;2.85;;;20.30;73.60;;;;;;5054695;28;20106;-30
2023/06/08 04:34:36;;;;;;;6.25;2.97;;;20.30;73.60;;;;;;5053809;28;20049;-31
2023/06/08 04:37:03;;;;;;;3.78;2.80;;;20.20;74.40;;;;;;5059693;28;20044;-31
2023/06/08 04:39:31;;;;;;;4.15;3.00;;;20.00;73.60;;;;;;5064514;28;20062;-31
2023/06/08 04:41:58;;;;;;;3.38;2.80;;;;;;;;;;5065387;28;20132;-31
2023/06/08 04:44:25;;;;;;;3.85;2.90;;;20.10;73.50;;;;;;5063663;28;20124;-31
2023/06/08 04:46:53;;;;;;;4.68;3.03;;;19.20;73.90;;;;;;5064213;28;20120;-31
2023/06/08 04:49:21;;;;;;;4.28;2.88;;;19.80;73.30;;;;;;5065537;28;20044;-31
2023/06/08 04:51:49;;;;;;;5.10;3.00;;;19.80;73.30;;;;;;5061870;28;20080;-31
2023/06/08 04:54:17;;;;;;;3.47;2.92;;;20.20;73.50;;;;;;5063145;28;20124;-31
2023/06/08 04:56:45;;;;;;;5.15;2.70;;;18.90;64.60;;;;;;5063388;28;20664;-31
2023/06/08 04:59:11;;;;;;;3.45;2.75;;;20.60;67.40;;;;;;5064186;28;20049;-31
2023/06/08 05:01:38;;;;;;;5.05;2.83;;;;;;;;;;5065174;28;20147;-34
2023/06/08 05:04:07;;;;;;;5.30;2.88;;;;;;;;;;5062917;28;20049;-34
2023/06/08 05:06:34;;;;;;;3.58;2.97;;;19.90;55.70;;;;;;5062668;28;20052;-31
2023/06/08 05:09:02;;;;;;;3.42;2.70;;;20.80;73.80;;;;;;5064987;28;20363;-31
2023/06/08 05:11:28;;;;;;;3.40;2.80;;;19.50;73.20;;;;;;5063882;28;20127;-31
2023/06/08 05:13:55;;;;;;;3.50;2.60;;;19.60;73.60;;;;;;5063016;28;20486;-31
2023/06/08 05:16:22;;;;;;;4.18;2.92;;;20.10;67.80;;;;;;5064655;28;20044;-33
2023/06/08 05:18:48;;;;;;;4.28;2.75;;;20.50;74.50;;;;;;5062007;28;20553;-31
2023/06/08 05:21:15;;;;;;;4.57;2.75;;;18.80;72.80;;;;;;5065352;28;20127;-31
2023/06/08 05:23:42;;;;;;;4.50;2.60;;;;;;;;;;5068201;28;20128;-32
2023/06/08 05:26:11;;;;;;;3.83;2.60;;;20.40;74.00;;;;;;5064776;28;20048;-31
2023/06/08 05:28:37;;;;;;;4.25;2.67;;;19.90;74.20;;;;;;5063613;28;20068;-31
2023/06/08 05:31:04;;;;;;;5.07;2.58;;;;;;;;;;5063332;28;20056;-34
2023/06/08 05:33:31;;;;;;;3.53;2.50;;;20.00;69.10;;;;;;5064513;28;20045;-32
2023/06/08 05:35:58;;;;;;;3.67;2.75;;;;;;;;;;5061240;28;20132;-35
2023/06/08 05:38:25;;;;;;;3.65;2.60;;;20.10;74.30;;;;;;5060523;28;20077;-30
2023/06/08 05:40:52;;;;;;;4.50;2.42;;;20.10;73.90;;;;;;5053253;28;20139;-31
2023/06/08 05:43:20;;;;;;;4.50;2.80;;;19.90;55.60;;;;;;5053491;28;20048;-34
2023/06/08 05:45:47;;;;;;;4.57;2.65;;;;;;;;;;5057949;28;20078;-36
2023/06/08 05:48:13;;;;;;;3.67;2.70;;;20.10;73.80;;;;;;5058949;28;20071;-31
2023/06/08 05:50:40;;;;;;;4.57;2.85;;;20.00;73.30;;;;;;5065867;28;20060;-31
2023/06/08 05:53:07;;;;;;;3.63;2.67;;;19.80;61.40;;;;;;5071156;28;20123;-32
2023/06/08 05:55:34;;;;;;;4.00;2.63;;;20.20;73.90;;;;;;5071134;28;20063;-31
2023/06/08 05:58:01;;;;;;;3.97;2.75;;;;;;;;;;5072155;28;20151;-31
2023/06/08 06:00:29;;;;;;;4.05;2.72;;;18.90;69.40;;;;;;5071913;28;20048;-31
2023/06/08 06:02:56;;;;;;;5.47;2.80;;;;;;;;;;5071128;28;20045;-31
2023/06/08 06:05:23;;;;;;;8.07;2.80;;;;;;;;;;5066408;28;20051;-33
2023/06/08 06:07:50;;;;;;;4.32;2.80;;;20.60;73.80;;;;;;5058252;28;20056;-31
2023/06/08 06:10:16;;;;;;;3.55;2.53;;;19.70;74.20;;;;;;5062498;28;20095;-31
2023/06/08 06:12:43;;;;;;;3.72;2.70;;;;;;;;;;5062442;28;20136;-31
2023/06/08 06:15:11;;;;;;;4.40;2.75;;;20.70;73.80;;;;;;5063776;28;20047;-31
2023/06/08 06:17:39;;;;;;;4.57;2.67;;;20.30;67.90;;;;;;5062314;28;20053;-31
2023/06/08 06:20:07;;;;;;;3.58;2.60;;;20.70;61.10;;;;;;5061023;28;20143;-34
2023/06/08 06:22:34;;;;;;;5.35;2.58;;;19.70;65.70;;;;;;5063767;28;20123;-32
2023/06/08 06:25:01;;;;;;;5.13;2.78;;;19.50;73.30;;;;;;5053249;28;20128;-31
2023/06/08 06:27:28;;;;;;;4.28;2.70;;;;;;;;;;5053146;28;20140;-35
2023/06/08 06:29:55;;;;;;;4.18;3.15;;;20.30;73.50;;;;;;5053180;28;20132;-32
2023/06/08 06:32:21;;;;;;;4.95;2.70;;;19.50;73.30;;;;;;5053040;28;20417;-31
2023/06/08 06:34:49;;;;;;;3.85;2.70;;;19.80;55.60;;;;;;5060536;28;20132;-34
2023/06/08 06:37:17;;;;;;;5.18;2.80;;;;;;;;;;5069570;28;20040;-35
2023/06/08 06:39:43;;;;;;;3.92;2.70;;;20.10;73.50;;;;;;5058567;28;20128;-31
2023/06/08 06:42:10;;;;;;;4.70;2.83;;;;;;;;;;5058458;28;20491;-42
2023/06/08 06:44:37;;;;;;;5.22;2.90;;;19.60;74.10;;;;;;5072743;28;20124;-31
2023/06/08 06:47:04;;;;;;;3.97;2.80;;;20.60;74.30;;;;;;5072947;28;20079;-31
2023/06/08 06:49:31;;;;;;;3.83;2.70;;;19.40;73.60;;;;;;5072288;28;20131;-31
2023/06/08 06:52:00;;;;;;;3.85;2.90;;;20.90;73.90;;;;;;5072331;28;20050;-31
2023/06/08 06:54:27;;;;;;;4.28;2.80;;;19.50;60.10;;;;;;5072428;28;20574;-32
2023/06/08 06:56:53;;;;;;;4.38;3.00;;;19.70;73.20;;;;;;5072559;28;20127;-31
2023/06/08 06:59:22;;;;;;;5.05;2.92;;;20.00;73.10;;;;;;5072274;28;20131;-31
2023/06/08 07:01:49;;;;;;;5.25;3.00;;;;;;;;;;5072673;28;20049;-34
2023/06/08 07:04:16;;;;;;;4.05;2.60;;;19.60;64.60;;;;;;5071450;28;20552;-31
2023/06/08 07:06:47;;;;;;;4.47;2.75;;;;;;;;;;5057205;28;20045;-34
2023/06/08 07:09:15;;;;;;;3.85;2.60;;;19.90;60.30;;;;;;5052470;28;20084;-31
2023/06/08 07:11:41;;;;;;;4.50;2.60;;;20.00;73.30;;;;;;5052500;28;20045;-32
2023/06/08 07:14:08;;;;;;;3.22;2.45;;;20.50;73.60;;;;;;5052462;28;20051;-31
2023/06/08 07:16:35;;;;;;;3.72;2.75;;;19.90;74.10;;;;;;5052379;28;20645;-31
2023/06/08 07:19:02;;;;;;;4.00;2.60;;;19.80;72.10;;;;;;5066715;28;20048;-31
2023/06/08 07:21:30;;;;;;;6.72;2.80;;;19.80;74.00;;;;;;5071699;28;20067;-31
2023/06/08 07:23:57;;;;;;;3.67;2.53;;;19.70;68.00;;;;;;5072160;28;20045;-31
2023/06/08 07:26:26;;;;;;;3.97;2.70;;;19.80;65.80;;;;;;5071965;28;20129;-31
2023/06/08 07:28:54;;;;;;;6.18;2.65;;;19.80;73.10;;;;;;5060523;28;20564;-32
2023/06/08 07:31:22;;;;;;;5.85;3.15;;;19.80;74.00;;;;;;5071128;28;20052;-31
2023/06/08 07:33:49;;;;;;;3.95;2.53;;;19.80;74.10;;;;;;5065878;28;20041;-31
2023/06/08 07:36:16;;;;;;;4.50;2.83;;;19.80;58.30;;;;;;5063736;28;20041;-33
2023/06/08 07:38:43;;;;;;;4.25;2.72;;;20.50;73.50;;;;;;5064432;28;20520;-41
2023/06/08 07:41:09;;;;;;;4.25;2.63;;;20.20;73.70;;;;;;5072103;28;20485;-41
2023/06/08 07:43:37;;;;;;;3.90;2.55;;;20.00;55.80;;;;;;5067367;28;20041;-38
2023/06/08 07:46:05;;;;;;;4.90;3.00;;;;;;;;;;5062665;28;20052;-38
2023/06/08 07:48:31;;;;;;;4.22;2.33;;;20.10;73.70;;;;;;5062549;28;20136;-41
2023/06/08 07:50:59;;;;;;;3.78;2.50;;;;;;;;;;5058073;28;20127;-36
2023/06/08 07:53:26;;;;;;;3.03;2.35;;;19.10;73.10;;;;;;5054112;28;20057;-41
2023/06/08 07:55:53;;;;;;;4.30;2.83;;;;;;;;;;5057004;28;20577;-38
2023/06/08 07:58:20;;;;;;;4.45;2.63;;;20.40;73.40;;;;;;5066972;28;20468;-40
2023/06/08 08:00:48;;;;;;;4.68;2.60;;;20.10;55.80;;;;;;5058272;28;20115;-41
2023/06/08 08:03:15;;;;;;;4.38;2.40;;;;;;;;;;5051640;28;20599;-41
2023/06/08 08:05:42;;;;;;;3.53;2.45;;;;;;;;;;5055608;28;20049;-35
2023/06/08 08:08:09;;;;;;;4.97;2.70;;;19.20;65.50;;;;;;5055617;28;20561;-31
2023/06/08 08:10:36;;;;;;;4.45;2.70;;;20.50;73.90;;;;;;5056917;28;20132;-31
2023/06/08 08:13:04;;;;;;;5.28;2.80;;;;;;;;;;5055594;28;20128;-34
2023/06/08 08:15:31;;;;;;;5.32;2.47;;;;;;;;;;5055735;28;20131;-31
2023/06/08 08:17:59;;;;;;;4.90;2.50;;;19.80;67.70;;;;;;5055393;28;20128;-32
2023/06/08 08:20:26;;;;;;;4.22;2.60;;;;;;;;;;5055555;28;20060;-33
2023/06/08 08:22:53;;;;;;;4.78;2.58;;;;;;;;;;5054698;28;20077;-31
2023/06/08 08:25:20;;;;;;;5.80;2.60;;;19.40;72.60;;;;;;5066514;28;20048;-32
2023/06/08 08:27:47;;;;;;;6.25;2.63;;;21.60;64.80;;;;;;5075057;28;20049;-32
2023/06/08 08:30:14;;;;;;;7.88;2.80;;;20.40;56.00;;;;;;5075364;28;20128;-36
2023/06/08 08:32:41;;;;;;;9.05;2.75;;;;;;;;;;5075079;28;20048;-33
2023/06/08 08:35:10;;;;;;;5.45;2.70;;;20.80;67.50;;;;;;5074990;28;20132;-32
2023/06/08 08:37:37;;;;;;;6.93;2.72;;;20.90;74.30;;;;;;5074597;28;20052;-31
2023/06/08 08:40:05;;;;;;;7.53;2.85;;;20.40;73.60;;;;;;5075284;28;20078;-31
2023/06/08 08:42:32;;;;;;;4.70;2.65;;;;;;;;;;5068023;28;20123;-34
2023/06/08 08:45:00;;;;;;;6.30;2.53;;;20.40;73.60;;;;;;5058760;28;20238;-31
2023/06/08 08:47:29;;;;;;;5.28;2.65;;;20.40;70.20;;;;;;5054921;28;20060;-33
2023/06/08 08:49:59;;;;;;;7.85;2.65;;;21.50;73.50;;;;;;5054816;28;20102;-33
2023/06/08 08:52:29;;;;;;;3.63;2.55;;;20.70;55.70;;;;;;5073487;28;20127;-35
2023/06/08 08:54:57;;;;;;;3.40;2.47;;;21.00;73.20;;;;;;5074266;28;20055;-31
2023/06/08 08:57:24;;;;;;;6.13;2.63;;;;;;;;;;5074062;28;20051;-35
2023/06/08 08:59:51;;;;;;;4.25;2.40;;;21.10;73.10;;;;;;5074269;28;20505;-31
2023/06/08 09:02:18;;;;;;;6.80;2.60;;;19.90;72.40;;;;;;5074268;28;20055;-32
2023/06/08 09:04:45;;;;;;;4.13;2.75;;;20.90;55.50;;;;;;5066911;28;20047;-35
2023/06/08 09:07:12;;;;;;;6.53;2.55;;;21.10;73.30;;;;;;5068228;28;20064;-32
2023/06/08 09:09:40;;;;;;;5.68;2.60;;;21.70;73.20;;;;;;5074328;28;20582;-32
2023/06/08 09:12:07;;;;;;;3.28;2.38;;;21.00;55.40;;;;;;5070238;28;20045;-35
2023/06/08 09:14:34;;;;;;;4.28;2.45;;;21.10;71.20;;;;;;5058771;28;20056;-32
2023/06/08 09:17:01;;;;;;;5.22;2.25;;;;;;;;;;5063742;28;20124;-32
2023/06/08 09:19:29;;;;;;;4.05;2.35;;;20.70;56.00;;;;;;5069304;28;20139;-32
2023/06/08 09:21:56;;;;;;;4.20;2.60;;;22.20;73.10;;;;;;5068990;28;20199;-32
2023/06/08 09:24:23;;;;;;;4.97;2.33;;;;;;;;;;5063427;28;20132;-35
2023/06/08 09:26:53;;;;;;;3.22;2.22;;;21.00;73.10;;;;;;5053106;28;20087;-32
2023/06/08 09:29:36;;;;;;;3.45;2.40;;;21.40;72.90;;;;;;5064003;28;20049;-32
2023/06/08 09:32:03;;;;;;;4.47;2.40;;;20.30;72.00;;;;;;5063731;28;20451;-32
2023/06/08 09:34:33;;;;;;;3.15;2.13;;;21.60;72.60;;;;;;5064200;28;20052;-32
2023/06/08 09:37:07;;;;;;;3.72;2.25;;;21.20;55.10;;;;;;5060103;28;20041;-34
2023/06/08 09:42:11;;;;;;;3.72;2.10;;;21.20;54.80;;;;;;5273495;22;20412;-32
2023/06/08 09:44:38;;;;;;;4.68;2.40;;;;;;;;;;5051596;28;20084;-32
2023/06/08 09:47:22;;;;;;;4.32;2.22;;;21.70;65.10;;;;;;5053114;28;20120;-33
2023/06/08 09:49:50;;;;;;;3.03;2.17;;;;;;;;;;5051505;28;20049;-33
2023/06/08 09:52:17;;;;;;;5.00;2.45;;;21.00;69.60;;;;;;5052362;28;20044;-33
2023/06/08 09:54:44;;;;;;;3.33;2.40;;;;;;;;;;5053179;28;20132;-32
2023/06/08 09:57:12;;;;;;;4.50;3.22;;;20.80;71.70;;;;;;5053416;28;20044;-33
2023/06/08 09:59:41;;;;;;;3.67;2.30;;;21.50;72.30;;;;;;5053691;28;20067;-33
2023/06/08 10:02:17;;;;;;;3.13;2.20;;;21.10;60.90;;;;;;5049546;28;20120;-33
2023/06/08 10:04:45;;;;;;;3.42;2.22;;;21.10;72.10;;;;;;5052414;28;20049;-33
2023/06/08 10:07:15;;;;;;;4.60;2.17;;;20.50;71.30;;;;;;5053646;28;20045;-33
2023/06/08 10:09:43;;;;;;;5.28;2.10;;;21.50;54.70;;;;;;5051697;28;20045;-33
2023/06/08 10:12:10;;;;;;;3.83;2.60;;;;;;;;;;5051932;28;20053;-33
2023/06/08 10:14:39;;;;;;;4.15;2.55;;;21.70;71.60;;;;;;5051452;28;20497;-33
2023/06/08 10:17:05;;;;;;;3.55;2.30;;;21.10;72.30;;;;;;5053516;28;20128;-34
2023/06/08 10:19:32;;;;;;;3.15;2.50;;;21.50;72.70;;;;;;5052901;28;20503;-34
2023/06/08 10:22:00;;;;;;;4.20;2.17;;;;;;;;;;5053259;28;20144;-31
2023/06/08 10:24:27;;;;;;;5.28;2.50;;;21.50;72.60;;;;;;5053223;28;20048;-31
2023/06/08 10:27:09;;;;;;;3.63;2.38;;;21.70;71.30;;;;;;5048759;28;20046;-31
2023/06/08 10:29:36;;;;;;;3.15;2.05;;;21.50;71.60;;;;;;5048824;28;20087;-30
2023/06/08 10:32:06;;;;;;;3.95;2.22;;;21.60;71.80;;;;;;5052681;28;20449;-31
2023/06/08 10:34:38;;;;;;;4.47;2.13;;;21.60;54.70;;;;;;5053165;28;20049;-30
2023/06/08 10:37:05;;;;;;;3.97;2.10;;;21.60;71.70;;;;;;5052700;28;20386;-31
2023/06/08 10:39:33;;;;;;;3.20;2.10;;;21.10;58.10;;;;;;5052668;28;20133;-31
2023/06/08 10:42:00;;;;;;;4.50;2.20;;;20.60;60.20;;;;;;5051609;28;20044;-31
2023/06/08 10:44:27;;;;;;;3.30;2.03;;;21.70;54.70;;;;;;5052970;28;20132;-31
2023/06/08 10:47:06;;;;;;;3.72;2.38;;;21.50;70.00;;;;;;5052747;28;20041;-31
2023/06/08 10:49:33;;;;;;;4.47;2.38;;;21.30;71.60;;;;;;5053042;28;20059;-30
2023/06/08 10:52:00;;;;;;;3.30;2.20;;;21.60;59.50;;;;;;5035304;28;20485;-31
2023/06/08 10:54:27;;;;;;;3.53;2.38;;;21.70;71.70;;;;;;5035033;28;20053;-31
2023/06/08 10:56:55;;;;;;;5.57;2.15;;;21.70;54.70;;;;;;5047321;28;20051;-31
2023/06/08 10:59:32;;;;;;;4.00;2.50;;;21.70;54.70;;;;;;5051757;28;20124;-32
2023/06/08 11:02:03;;;;;;;3.97;2.25;;;22.40;72.40;;;;;;5051708;28;20187;-31
2023/06/08 11:04:31;;;;;;;3.45;2.33;;;21.70;72.40;;;;;;5052079;28;20045;-31
2023/06/08 11:07:02;;;;;;;4.07;2.20;;;21.30;72.20;;;;;;5051790;28;20512;-31
2023/06/08 11:09:30;;;;;;;4.78;2.40;;;21.80;54.80;;;;;;5052216;28;20053;-32
2023/06/08 11:11:57;;;;;;;3.30;2.47;;;21.60;65.00;;;;;;5052033;28;20053;-30
2023/06/08 11:14:23;;;;;;;4.82;2.70;;;21.60;71.50;;;;;;5051984;28;20051;-31
2023/06/08 11:16:51;;;;;;;4.07;2.65;;;21.90;72.60;;;;;;5052208;28;20073;-31
2023/06/08 11:19:19;;;;;;;3.90;2.70;;;22.40;64.20;;;;;;5052358;28;20135;-31
2023/06/08 11:21:50;;;;;;;5.97;2.95;;;21.80;54.90;;;;;;5051975;28;20060;-32
2023/06/08 11:24:17;;;;;;;4.78;2.80;;;22.50;72.80;;;;;;5039408;28;20073;-31
2023/06/08 11:26:43;;;;;;;4.90;2.95;;;21.10;66.00;;;;;;5035400;28;20055;-31
2023/06/08 11:29:10;;;;;;;5.22;3.55;;;21.80;72.50;;;;;;5052069;28;20493;-31
2023/06/08 11:31:40;;;;;;;7.97;3.40;;;;;;;;;;5051913;28;20059;-32
2023/06/08 11:34:07;;;;;;;4.25;2.83;;;22.10;72.20;;;;;;5051529;28;20141;-31
2023/06/08 11:36:35;;;;;;;4.22;2.80;;;21.80;72.40;;;;;;5051506;28;20049;-31
2023/06/08 11:39:05;;;;;;;5.32;3.10;;;21.90;71.60;;;;;;5052012;28;20053;-31
2023/06/08 11:41:32;;;;;;;5.03;3.28;;;;;;;;;;5051706;28;20095;-31
2023/06/08 11:43:58;;;;;;;5.28;3.13;;;22.40;71.80;;;;;;5051943;28;20045;-31
2023/06/08 11:46:26;;;;;;;3.63;2.72;;;21.60;71.40;;;;;;5051713;28;20055;-31
2023/06/08 11:48:53;;;;;;;4.07;2.88;;;21.80;71.60;;;;;;5051875;28;20044;-31
2023/06/08 11:51:22;;;;;;;4.13;2.83;;;;;;;;;;5040124;28;20583;-32
2023/06/08 11:53:51;;;;;;;5.05;3.30;;;23.10;72.20;;;;;;5031652;28;20406;-31
2023/06/08 11:56:20;;;;;;;4.07;2.90;;;22.00;54.90;;;;;;5037723;28;20041;-32
2023/06/08 11:58:47;;;;;;;5.72;3.53;;;21.70;72.30;;;;;;5051860;28;20056;-31
2023/06/08 12:01:14;;;;;;;5.20;3.05;;;21.70;71.50;;;;;;5051722;28;20705;-31
2023/06/08 12:03:44;;;;;;;4.90;3.00;;;22.10;61.20;;;;;;5051721;28;20132;-31
2023/06/08 12:06:11;;;;;;;5.47;3.17;;;22.20;71.40;;;;;;5051560;28;20037;-33
2023/06/08 12:08:37;;;;;;;4.18;3.10;;;22.00;71.40;;;;;;5051612;28;20124;-33
2023/06/08 12:11:11;;;;;;;5.38;3.42;;;22.30;72.50;;;;;;5042005;28;20226;-33
2023/06/08 12:13:40;;;;;;;5.10;3.20;;;22.20;69.50;;;;;;5049336;28;20049;-33
2023/06/08 12:16:07;;;;;;;4.22;3.10;;;22.20;61.00;;;;;;5051320;28;20059;-33
2023/06/08 12:18:37;;;;;;;4.63;3.00;;;21.60;71.60;;;;;;5051791;28;20052;-33
2023/06/08 12:21:04;;;;;;;4.95;3.35;;;22.30;71.50;;;;;;5059515;28;20049;-33
2023/06/08 12:23:31;;;;;;;4.82;3.30;;;;;;;;;;5068468;28;20136;-33
2023/06/08 12:25:58;;;;;;;5.68;3.33;;;22.20;71.20;;;;;;5068952;28;20074;-33
2023/06/08 12:28:26;;;;;;;5.55;3.50;;;22.10;71.30;;;;;;5051305;28;20148;-33
2023/06/08 12:30:54;;;;;;;7.95;3.15;;;22.10;54.90;;;;;;5051311;28;20565;-32
2023/06/08 12:33:21;;;;;;;5.65;3.33;;;;;;;;;;5051015;28;20417;-32
2023/06/08 12:35:49;;;;;;;4.50;2.75;;;22.00;72.00;;;;;;5051376;28;20053;-33
2023/06/08 12:38:16;;;;;;;5.80;3.30;;;21.30;71.10;;;;;;5031235;28;20133;-33
2023/06/08 12:40:47;;;;;;;6.85;3.10;;;22.10;57.30;;;;;;5031152;28;20132;-33
2023/06/08 12:43:13;;;;;;;4.68;3.10;;;21.90;60.30;;;;;;5031378;28;20132;-33
2023/06/08 12:45:40;;;;;;;7.03;3.53;;;22.40;71.80;;;;;;5031398;28;20128;-33
2023/06/08 12:48:09;;;;;;;5.88;3.22;;;21.90;71.60;;;;;;5050730;28;20124;-33
2023/06/08 12:50:36;;;;;;;6.13;3.50;;;;;;;;;;5048172;28;20060;-33
2023/06/08 12:53:03;;;;;;;4.28;2.90;;;;;;;;;;5034875;28;20080;-33
2023/06/08 12:55:30;;;;;;;5.10;3.28;;;;;;;;;;5034885;28;20060;-32
2023/06/08 12:57:57;;;;;;;6.22;3.22;;;22.20;71.30;;;;;;5035167;28;20055;-33
2023/06/08 13:00:25;;;;;;;4.70;3.40;;;;;;;;;;5054793;28;20107;-33
2023/06/08 13:02:52;;;;;;;4.53;3.17;;;;;;;;;;5054574;28;20045;-32
2023/06/08 13:05:20;;;;;;;4.53;3.55;;;21.90;71.10;;;;;;5054849;28;20053;-33
2023/06/08 13:07:47;;;;;;;4.60;3.05;;;23.30;71.80;;;;;;5054420;28;20401;-33
2023/06/08 13:10:14;;;;;;;4.57;2.80;;;21.80;71.10;;;;;;5054776;28;20132;-33
2023/06/08 13:12:41;;;;;;;4.07;2.80;;;23.10;71.80;;;;;;5054564;28;20045;-33